createdAt,value
2023-05-21T00:00:37.345Z,5.18
2023-05-21T00:03:06.451Z,5.70
2023-05-21T00:05:35.639Z,5.30
2023-05-21T00:08:06.687Z,5.82
2023-05-21T00:10:35.708Z,5.22
2023-05-21T00:13:04.706Z,5.45
2023-05-21T00:15:34.072Z,5.18
2023-05-21T00:18:03.840Z,5.35
2023-05-21T00:20:33.453Z,5.05
2023-05-21T00:23:04.037Z,5.18
2023-05-21T00:25:35.136Z,5.22
2023-05-21T00:28:04.285Z,4.95
2023-05-21T00:30:33.309Z,5.18
2023-05-21T00:33:03.425Z,5.18
2023-05-21T00:35:32.512Z,5.13
2023-05-21T00:38:01.988Z,4.63
2023-05-21T00:40:32.296Z,5.03
2023-05-21T00:43:02.854Z,4.30
2023-05-21T00:45:31.890Z,5.35
2023-05-21T00:48:03.055Z,5.15
2023-05-21T00:50:32.564Z,5.45
2023-05-21T00:53:01.582Z,4.88
2023-05-21T00:55:31.136Z,5.55
2023-05-21T00:58:00.171Z,4.55
2023-05-21T01:00:30.797Z,5.28
2023-05-21T01:02:59.947Z,5.13
2023-05-21T01:05:29.697Z,4.80
2023-05-21T01:08:00.134Z,5.30
2023-05-21T01:10:30.554Z,5.03
2023-05-21T01:13:00.904Z,4.88
2023-05-21T01:15:31.639Z,5.38
2023-05-21T01:18:01.241Z,5.20
2023-05-21T01:20:32.190Z,5.35
2023-05-21T01:23:04.089Z,4.65
2023-05-21T01:25:33.251Z,5.32
2023-05-21T01:28:02.451Z,4.70
2023-05-21T01:30:31.606Z,4.97
2023-05-21T01:33:04.994Z,5.18
2023-05-21T01:35:36.972Z,4.97
2023-05-21T01:38:19.114Z,4.63
2023-05-21T01:40:54.436Z,4.57
2023-05-21T01:43:24.869Z,5.40
2023-05-21T01:45:56.739Z,5.97
2023-05-21T01:48:27.086Z,5.80
2023-05-21T01:50:57.115Z,5.90
2023-05-21T01:53:27.790Z,5.20
2023-05-21T01:55:57.224Z,5.93
2023-05-21T01:58:26.601Z,6.47
2023-05-21T02:00:55.691Z,6.40
2023-05-21T02:03:28.223Z,5.68
2023-05-21T02:05:57.385Z,6.55
2023-05-21T02:08:28.039Z,5.72
2023-05-21T02:10:57.606Z,7.70
2023-05-21T02:13:27.146Z,7.18
2023-05-21T02:15:57.550Z,7.05
2023-05-21T02:18:29.403Z,6.78
2023-05-21T02:20:58.805Z,6.68
2023-05-21T02:23:29.225Z,7.32
2023-05-21T02:25:58.545Z,6.65
2023-05-21T02:28:30.072Z,7.03
2023-05-21T02:30:59.305Z,7.10
2023-05-21T02:33:28.895Z,6.97
2023-05-21T02:35:57.948Z,7.72
2023-05-21T02:38:28.901Z,6.72
2023-05-21T02:40:57.999Z,7.28
2023-05-21T02:43:27.355Z,7.85
2023-05-21T02:45:56.490Z,6.78
2023-05-21T02:48:27.163Z,7.00
2023-05-21T02:50:56.269Z,6.75
2023-05-21T02:53:25.256Z,7.07
2023-05-21T02:55:56.541Z,6.70
2023-05-21T02:58:26.032Z,6.50
2023-05-21T03:00:55.131Z,6.72
2023-05-21T03:03:24.284Z,6.35
2023-05-21T03:05:53.402Z,6.95
2023-05-21T03:08:22.647Z,7.15
2023-05-21T03:10:51.726Z,7.75
2023-05-21T03:13:22.367Z,7.03
2023-05-21T03:15:56.294Z,7.47
2023-05-21T03:18:25.451Z,7.47
2023-05-21T03:20:54.994Z,7.88
2023-05-21T03:23:24.012Z,7.63
2023-05-21T03:25:53.243Z,7.28
2023-05-21T03:28:24.566Z,7.18
2023-05-21T03:30:53.741Z,7.38
2023-05-21T03:33:42.026Z,7.32
2023-05-21T03:36:25.081Z,6.97
2023-05-21T03:38:54.658Z,6.45
2023-05-21T03:41:24.119Z,6.88
2023-05-21T03:43:59.798Z,6.47
2023-05-21T03:46:34.360Z,6.70
2023-05-21T03:49:09.832Z,5.82
2023-05-21T03:51:40.569Z,6.20
2023-05-21T03:54:12.487Z,6.15
2023-05-21T03:56:42.319Z,6.00
2023-05-21T03:59:13.033Z,4.65
2023-05-21T04:01:42.835Z,5.00
2023-05-21T04:04:16.286Z,5.10
2023-05-21T04:06:45.605Z,5.05
2023-05-21T04:09:15.483Z,4.20
2023-05-21T04:11:45.030Z,4.72
2023-05-21T04:14:15.465Z,3.90
2023-05-21T04:16:45.074Z,4.45
2023-05-21T04:19:14.158Z,3.83
2023-05-21T04:21:45.230Z,3.17
2023-05-21T04:24:16.710Z,3.40
2023-05-21T04:26:52.376Z,3.97
2023-05-21T04:29:23.129Z,3.65
2023-05-21T04:31:52.926Z,4.22
2023-05-21T04:34:22.076Z,3.67
2023-05-21T04:36:52.181Z,3.67
2023-05-21T04:39:21.756Z,3.75
2023-05-21T04:41:54.771Z,3.95
2023-05-21T04:44:25.346Z,4.20
2023-05-21T04:46:55.046Z,5.93
2023-05-21T04:49:24.570Z,4.10
2023-05-21T04:51:53.900Z,4.00
2023-05-21T04:54:22.864Z,3.63
2023-05-21T04:56:52.821Z,3.78
2023-05-21T04:59:21.854Z,3.85
2023-05-21T05:01:52.830Z,3.20
2023-05-21T05:04:24.043Z,3.78
2023-05-21T05:06:53.529Z,3.50
2023-05-21T05:09:41.586Z,3.58
2023-05-21T05:12:11.007Z,3.60
2023-05-21T05:14:40.280Z,3.95
2023-05-21T05:17:11.024Z,3.60
2023-05-21T05:19:40.084Z,3.30
2023-05-21T05:22:09.142Z,3.33
2023-05-21T05:24:38.555Z,3.72
2023-05-21T05:27:07.632Z,3.40
2023-05-21T05:29:37.095Z,3.15
2023-05-21T05:32:07.336Z,3.60
2023-05-21T05:34:38.819Z,3.70
2023-05-21T05:37:08.182Z,3.20
2023-05-21T05:39:37.248Z,3.85
2023-05-21T05:42:07.102Z,3.08
2023-05-21T05:44:36.272Z,3.22
2023-05-21T05:47:09.307Z,2.90
2023-05-21T05:49:39.859Z,2.60
2023-05-21T05:52:09.202Z,2.83
2023-05-21T05:54:38.532Z,2.70
2023-05-21T05:57:08.149Z,2.53
2023-05-21T05:59:38.248Z,2.90
2023-05-21T06:02:08.282Z,2.70
2023-05-21T06:04:37.385Z,2.60
2023-05-21T06:07:08.160Z,2.78
2023-05-21T06:09:38.951Z,3.00
2023-05-21T06:12:12.292Z,3.00
2023-05-21T06:14:45.985Z,2.92
2023-05-21T06:17:15.249Z,3.05
2023-05-21T06:19:45.434Z,2.63
2023-05-21T06:22:16.116Z,2.45
2023-05-21T06:24:45.981Z,2.97
2023-05-21T06:27:16.438Z,3.03
2023-05-21T06:29:46.153Z,2.70
2023-05-21T06:32:16.233Z,2.70
2023-05-21T06:34:45.340Z,2.90
2023-05-21T06:37:16.135Z,2.90
2023-05-21T06:39:46.121Z,2.90
2023-05-21T06:42:15.211Z,3.10
2023-05-21T06:44:55.549Z,2.70
2023-05-21T06:47:32.565Z,2.63
2023-05-21T06:50:01.858Z,2.40
2023-05-21T06:52:35.867Z,2.30
2023-05-21T06:55:06.549Z,2.38
2023-05-21T06:57:55.851Z,2.40
2023-05-21T07:00:24.949Z,2.20
2023-05-21T07:02:54.574Z,2.50
2023-05-21T07:05:23.966Z,2.33
2023-05-21T07:07:54.638Z,2.00
2023-05-21T07:10:23.788Z,2.20
2023-05-21T07:12:52.962Z,1.73
2023-05-21T07:15:41.754Z,1.60
2023-05-21T07:18:11.957Z,1.90
2023-05-21T07:20:44.372Z,2.20
2023-05-21T07:23:37.804Z,2.15
2023-05-21T07:26:11.431Z,2.20
2023-05-21T07:28:40.789Z,2.50
2023-05-21T07:31:12.332Z,2.08
2023-05-21T07:33:46.111Z,2.33
2023-05-21T07:36:16.376Z,2.10
2023-05-21T07:38:46.951Z,2.25
2023-05-21T07:41:18.528Z,2.22
2023-05-21T07:43:49.161Z,2.78
2023-05-21T07:46:36.778Z,2.35
2023-05-21T07:49:06.177Z,2.40
2023-05-21T07:51:35.301Z,2.60
2023-05-21T07:54:06.608Z,2.60
2023-05-21T07:56:54.234Z,2.15
2023-05-21T07:59:52.850Z,2.30
2023-05-21T08:02:23.065Z,2.92
2023-05-21T08:04:55.284Z,2.55
2023-05-21T08:07:43.344Z,2.65
2023-05-21T08:10:13.977Z,2.75
2023-05-21T08:12:43.438Z,2.60
2023-05-21T08:15:12.992Z,2.60
2023-05-21T08:17:46.515Z,2.63
2023-05-21T08:20:16.282Z,2.85
2023-05-21T08:22:48.466Z,2.75
2023-05-21T08:25:20.045Z,3.10
2023-05-21T08:27:51.579Z,2.85
2023-05-21T08:30:22.794Z,3.10
2023-05-21T08:32:52.138Z,3.22
2023-05-21T08:35:22.917Z,3.13
2023-05-21T08:38:09.472Z,3.10
2023-05-21T08:41:01.029Z,2.95
2023-05-21T08:43:31.806Z,2.95
2023-05-21T08:46:05.004Z,3.53
2023-05-21T08:48:39.005Z,2.72
2023-05-21T08:51:08.574Z,3.00
2023-05-21T08:53:45.938Z,2.92
2023-05-21T08:56:19.699Z,2.42
2023-05-21T08:58:53.784Z,2.15
2023-05-21T09:01:26.784Z,2.40
2023-05-21T09:04:21.314Z,2.50
2023-05-21T09:06:58.111Z,2.20
2023-05-21T09:09:56.479Z,2.35
2023-05-21T09:12:27.519Z,2.38
2023-05-21T09:14:58.685Z,2.53
2023-05-21T09:17:34.381Z,2.05
2023-05-21T09:20:16.724Z,2.35
2023-05-21T09:22:56.678Z,2.00
2023-05-21T09:25:28.423Z,2.00
2023-05-21T09:28:01.342Z,2.50
2023-05-21T09:30:32.485Z,2.30
2023-05-21T09:33:03.728Z,2.40
2023-05-21T09:35:37.508Z,1.95
2023-05-21T09:38:10.725Z,2.28
2023-05-21T09:40:46.998Z,2.20
2023-05-21T09:43:19.885Z,2.60
2023-05-21T09:45:53.586Z,1.98
2023-05-21T09:48:39.235Z,2.10
2023-05-21T09:53:50.094Z,2.25
2023-05-21T09:56:22.632Z,2.15
2023-05-21T09:58:55.827Z,1.60
2023-05-21T10:01:25.692Z,2.03
2023-05-21T10:03:58.103Z,1.90
2023-05-21T10:06:28.995Z,1.98
2023-05-21T10:08:59.355Z,1.95
2023-05-21T10:11:32.688Z,2.10
2023-05-21T10:14:09.117Z,2.10
2023-05-21T10:16:39.103Z,2.00
2023-05-21T10:19:11.219Z,1.88
2023-05-21T10:21:41.379Z,2.20
2023-05-21T10:24:11.148Z,2.38
2023-05-21T10:26:41.028Z,2.33
2023-05-21T10:29:11.754Z,2.00
2023-05-21T10:31:41.146Z,2.30
2023-05-21T10:34:11.963Z,1.85
2023-05-21T10:36:42.444Z,1.90
2023-05-21T10:39:14.623Z,2.05
2023-05-21T10:41:54.038Z,1.77
2023-05-21T10:44:38.670Z,1.80
2023-05-21T10:47:32.791Z,1.80
2023-05-21T10:50:16.960Z,1.92
2023-05-21T10:52:58.390Z,2.00
2023-05-21T10:55:48.355Z,1.85
2023-05-21T10:58:41.267Z,2.13
2023-05-21T11:01:12.430Z,1.80
2023-05-21T11:03:42.234Z,1.90
2023-05-21T11:06:12.066Z,1.73
2023-05-21T11:08:49.324Z,1.75
2023-05-21T11:11:43.074Z,2.00
2023-05-21T11:14:32.797Z,1.73
2023-05-21T11:17:04.838Z,1.98
2023-05-21T11:19:52.006Z,2.00
2023-05-21T11:22:24.996Z,1.65
2023-05-21T11:24:55.328Z,2.15
2023-05-21T11:27:35.150Z,1.50
2023-05-21T11:30:08.791Z,1.83
2023-05-21T11:32:58.738Z,1.80
2023-05-21T11:35:29.132Z,2.10
2023-05-21T11:38:15.333Z,1.77
2023-05-21T11:41:03.259Z,2.00
2023-05-21T11:43:32.479Z,2.00
2023-05-21T11:46:18.951Z,1.88
2023-05-21T11:49:10.173Z,1.77
2023-05-21T11:51:41.594Z,2.08
2023-05-21T11:54:34.401Z,2.08
2023-05-21T11:57:04.298Z,1.80
2023-05-21T11:59:35.037Z,2.33
2023-05-21T12:02:04.996Z,2.10
2023-05-21T12:04:53.889Z,1.70
2023-05-21T12:07:22.961Z,1.95
2023-05-21T12:09:53.288Z,2.55
2023-05-21T12:12:23.609Z,2.30
2023-05-21T12:14:54.076Z,2.13
2023-05-21T12:17:24.374Z,2.47
2023-05-21T12:19:56.748Z,2.85
2023-05-21T12:22:28.114Z,2.72
2023-05-21T12:25:15.970Z,2.47
2023-05-21T12:27:45.301Z,2.22
2023-05-21T12:30:15.416Z,3.22
2023-05-21T12:32:45.337Z,2.30
2023-05-21T12:35:24.887Z,2.05
2023-05-21T12:37:54.510Z,2.10
2023-05-21T12:40:23.780Z,2.00
2023-05-21T12:42:52.878Z,2.10
2023-05-21T12:45:22.901Z,1.88
2023-05-21T12:47:56.590Z,1.90
2023-05-21T12:50:28.348Z,1.45
2023-05-21T12:52:59.196Z,1.80
2023-05-21T12:55:28.385Z,2.10
2023-05-21T12:58:25.477Z,1.98
2023-05-21T13:01:13.765Z,1.75
2023-05-21T13:04:02.553Z,1.95
2023-05-21T13:06:43.583Z,1.88
2023-05-21T13:09:31.546Z,1.58
2023-05-21T13:12:00.710Z,1.40
2023-05-21T13:14:29.859Z,1.50
2023-05-21T13:16:59.987Z,1.77
2023-05-21T13:19:29.433Z,5.35
2023-05-21T13:22:00.109Z,1.50
2023-05-21T13:24:29.138Z,1.60
2023-05-21T13:26:58.174Z,1.63
2023-05-21T13:29:27.311Z,1.90
2023-05-21T13:31:56.420Z,2.03
2023-05-21T13:34:25.861Z,1.52
2023-05-21T13:36:54.956Z,1.83
2023-05-21T13:39:27.755Z,1.65
2023-05-21T13:41:56.840Z,1.60
2023-05-21T13:44:25.843Z,1.77
2023-05-21T13:46:55.028Z,1.70
2023-05-21T13:49:24.032Z,1.70
2023-05-21T13:52:11.948Z,1.80
2023-05-21T13:54:43.928Z,1.50
2023-05-21T13:57:13.042Z,1.80
2023-05-21T14:00:02.095Z,1.80
2023-05-21T14:02:38.053Z,1.90
2023-05-21T14:05:07.834Z,1.70
2023-05-21T14:07:36.909Z,1.50
2023-05-21T14:10:08.550Z,1.77
2023-05-21T14:12:38.680Z,1.60
2023-05-21T14:15:08.912Z,2.42
2023-05-21T14:17:56.673Z,1.38
2023-05-21T14:20:25.838Z,1.77
2023-05-21T14:22:55.005Z,1.88
2023-05-21T14:25:25.511Z,1.55
2023-05-21T14:27:54.623Z,1.80
2023-05-21T14:30:24.012Z,2.10
2023-05-21T14:33:10.472Z,1.40
2023-05-21T14:35:58.230Z,1.63
2023-05-21T14:38:27.861Z,1.88
2023-05-21T14:40:58.514Z,1.63
2023-05-21T14:43:27.569Z,1.67
2023-05-21T14:45:56.633Z,1.70
2023-05-21T14:48:25.758Z,1.55
2023-05-21T14:50:54.963Z,1.80
2023-05-21T14:53:24.073Z,1.63
2023-05-21T14:55:54.160Z,1.67
2023-05-21T14:58:24.788Z,2.05
2023-05-21T15:00:53.821Z,1.98
2023-05-21T15:04:00.356Z,2.00
2023-05-21T15:06:29.688Z,1.70
2023-05-21T15:08:58.796Z,1.80
2023-05-21T15:12:04.259Z,1.98
2023-05-21T15:14:35.238Z,1.90
2023-05-21T15:17:22.879Z,1.92
2023-05-21T15:19:52.046Z,2.00
2023-05-21T15:22:21.144Z,2.00
2023-05-21T15:24:50.253Z,1.90
2023-05-21T15:27:19.485Z,1.90
2023-05-21T15:30:08.279Z,1.73
2023-05-21T15:32:37.457Z,1.80
2023-05-21T15:35:24.543Z,1.90
2023-05-21T15:37:53.946Z,2.35
2023-05-21T15:40:24.404Z,2.10
2023-05-21T15:42:55.295Z,2.05
2023-05-21T15:45:25.894Z,2.13
2023-05-21T15:47:55.141Z,1.67
2023-05-21T15:50:24.350Z,1.77
2023-05-21T15:52:53.753Z,2.30
2023-05-21T15:55:23.034Z,2.30
2023-05-21T15:57:52.010Z,1.90
2023-05-21T16:00:21.276Z,2.20
2023-05-21T16:02:51.784Z,2.13
2023-05-21T16:05:20.785Z,1.85
2023-05-21T16:07:50.187Z,1.90
2023-05-21T16:10:19.578Z,2.03
2023-05-21T16:12:50.429Z,1.58
2023-05-21T16:15:19.498Z,1.67
2023-05-21T16:17:48.659Z,2.10
2023-05-21T16:20:21.917Z,2.30
2023-05-21T16:22:51.279Z,1.60
2023-05-21T16:25:20.488Z,2.08
2023-05-21T16:27:50.302Z,1.80
2023-05-21T16:30:19.839Z,2.45
2023-05-21T16:32:49.181Z,1.85
2023-05-21T16:35:19.689Z,2.20
2023-05-21T16:37:48.727Z,4.00
2023-05-21T16:40:18.111Z,2.70
2023-05-21T16:42:47.192Z,2.20
2023-05-21T16:45:20.722Z,2.40
2023-05-21T16:47:50.529Z,3.13
2023-05-21T16:50:21.555Z,3.83
2023-05-21T16:52:50.840Z,3.15
2023-05-21T16:55:20.109Z,2.80
2023-05-21T16:57:49.674Z,2.83
2023-05-21T17:00:19.380Z,3.20
2023-05-21T17:02:48.512Z,5.78
2023-05-21T17:05:17.773Z,7.93
2023-05-21T17:07:49.314Z,15.07
2023-05-21T17:10:18.608Z,12.50
2023-05-21T17:12:48.476Z,9.18
2023-05-21T17:15:17.699Z,3.97
2023-05-21T17:17:46.990Z,3.90
2023-05-21T17:20:16.406Z,3.70
2023-05-21T17:22:45.528Z,3.65
2023-05-21T17:25:16.239Z,3.65
2023-05-21T17:27:45.498Z,3.55
2023-05-21T17:30:14.920Z,2.80
2023-05-21T17:32:44.049Z,3.20
2023-05-21T17:35:13.212Z,3.10
2023-05-21T17:37:42.354Z,3.28
2023-05-21T17:40:12.426Z,3.38
2023-05-21T17:42:42.909Z,3.50
2023-05-21T17:45:12.624Z,3.55
2023-05-21T17:47:41.725Z,3.45
2023-05-21T17:50:11.609Z,3.47
2023-05-21T17:52:40.689Z,3.60
2023-05-21T17:55:10.434Z,4.47
2023-05-21T17:57:39.566Z,3.40
2023-05-21T18:00:11.284Z,3.33
2023-05-21T18:02:43.400Z,3.17
2023-05-21T18:05:12.564Z,3.10
2023-05-21T18:07:41.696Z,5.00
2023-05-21T18:10:11.253Z,5.00
2023-05-21T18:12:40.910Z,5.25
2023-05-21T18:15:12.266Z,5.82
2023-05-21T18:17:41.469Z,4.53
2023-05-21T18:20:11.801Z,8.30
2023-05-21T18:22:41.215Z,8.52
2023-05-21T18:25:11.112Z,8.75
2023-05-21T18:27:40.502Z,9.73
2023-05-21T18:30:12.180Z,9.48
2023-05-21T18:32:41.491Z,8.38
2023-05-21T18:35:13.141Z,8.68
2023-05-21T18:37:46.831Z,8.27
2023-05-21T18:40:17.638Z,8.35
2023-05-21T18:42:46.708Z,8.52
2023-05-21T18:45:17.387Z,8.73
2023-05-21T18:47:46.453Z,9.18
2023-05-21T18:50:15.893Z,9.38
2023-05-21T18:52:45.094Z,8.80
2023-05-21T18:55:14.547Z,8.48
2023-05-21T18:57:43.707Z,9.25
2023-05-21T19:00:13.907Z,9.18
2023-05-21T19:02:45.709Z,8.50
2023-05-21T19:05:14.934Z,8.30
2023-05-21T19:07:44.415Z,8.85
2023-05-21T19:10:14.113Z,7.85
2023-05-21T19:12:44.147Z,10.32
2023-05-21T19:15:14.018Z,10.02
2023-05-21T19:17:44.636Z,8.32
2023-05-21T19:20:24.357Z,9.02
2023-05-21T19:22:53.829Z,8.95
2023-05-21T19:25:23.712Z,8.00
2023-05-21T19:27:52.980Z,8.85
2023-05-21T19:30:22.153Z,8.35
2023-05-21T19:32:52.946Z,10.02
2023-05-21T19:35:22.811Z,10.00
2023-05-21T19:37:51.881Z,9.55
2023-05-21T19:40:22.758Z,9.98
2023-05-21T19:42:51.830Z,10.48
2023-05-21T19:45:21.723Z,9.52
2023-05-21T19:47:52.917Z,9.73
2023-05-21T19:50:22.358Z,9.10
2023-05-21T19:52:52.293Z,8.63
2023-05-21T19:55:23.254Z,8.65
2023-05-21T19:57:53.308Z,9.85
2023-05-21T20:00:48.641Z,10.32
2023-05-21T20:03:19.172Z,8.75
2023-05-21T20:05:48.296Z,8.43
2023-05-21T20:08:17.810Z,10.00
2023-05-21T20:10:49.367Z,10.68
2023-05-21T20:13:20.410Z,12.23
2023-05-21T20:15:50.063Z,10.95
2023-05-21T20:18:21.920Z,11.75
2023-05-21T20:20:51.139Z,10.07
2023-05-21T20:23:20.261Z,11.88
2023-05-21T20:25:49.337Z,12.68
2023-05-21T20:28:19.833Z,11.27
2023-05-21T20:30:54.739Z,11.13
2023-05-21T20:33:26.022Z,11.20
2023-05-21T20:35:55.107Z,10.82
2023-05-21T20:38:26.520Z,10.10
2023-05-21T20:40:56.474Z,10.68
2023-05-21T20:43:25.776Z,9.15
2023-05-21T20:45:59.938Z,10.30
2023-05-21T20:48:32.137Z,10.90
2023-05-21T20:51:01.580Z,10.65
2023-05-21T20:53:30.608Z,10.27
2023-05-21T20:56:01.727Z,9.98
2023-05-21T20:58:31.620Z,8.60
2023-05-21T21:01:01.932Z,9.43
2023-05-21T21:03:34.416Z,9.18
2023-05-21T21:06:04.721Z,8.48
2023-05-21T21:08:34.869Z,8.68
2023-05-21T21:11:04.030Z,9.52
2023-05-21T21:13:33.062Z,10.20
2023-05-21T21:16:02.058Z,9.25
2023-05-21T21:18:32.694Z,9.02
2023-05-21T21:21:02.141Z,10.93
2023-05-21T21:23:31.351Z,10.82
2023-05-21T21:26:00.338Z,11.18
2023-05-21T21:28:29.590Z,8.38
2023-05-21T21:30:58.756Z,10.60
2023-05-21T21:33:28.559Z,10.50
2023-05-21T21:35:59.166Z,11.50
2023-05-21T21:38:28.193Z,10.88
2023-05-21T21:40:57.424Z,12.02
2023-05-21T21:43:26.671Z,8.60
2023-05-21T21:45:56.050Z,7.20
2023-05-21T21:48:25.135Z,8.55
2023-05-21T21:50:54.169Z,8.88
2023-05-21T21:53:24.739Z,9.63
2023-05-21T21:55:55.233Z,8.55
2023-05-21T21:58:24.368Z,9.35
2023-05-21T22:00:54.295Z,7.93
2023-05-21T22:03:23.315Z,8.32
2023-05-21T22:05:52.729Z,8.13
2023-05-21T22:08:21.927Z,8.02
2023-05-21T22:10:52.691Z,7.88
2023-05-21T22:13:21.822Z,7.55
2023-05-21T22:15:51.667Z,9.43
2023-05-21T22:18:31.941Z,9.05
2023-05-21T22:21:09.951Z,8.23
2023-05-21T22:23:39.732Z,8.18
2023-05-21T22:26:10.800Z,7.70
2023-05-21T22:28:40.159Z,7.50
2023-05-21T22:31:09.494Z,7.97
2023-05-21T22:33:39.340Z,8.68
2023-05-21T22:36:09.298Z,9.93
2023-05-21T22:38:39.032Z,8.18
2023-05-21T22:41:10.034Z,7.82
2023-05-21T22:43:39.311Z,7.30
2023-05-21T22:46:08.417Z,7.82
2023-05-21T22:48:37.451Z,8.10
2023-05-21T22:51:06.707Z,7.75
2023-05-21T22:53:35.835Z,8.43
2023-05-21T22:56:05.042Z,9.88
2023-05-21T22:58:35.581Z,7.70
2023-05-21T23:01:05.758Z,7.93
2023-05-21T23:03:34.768Z,8.77
2023-05-21T23:06:03.852Z,7.68
2023-05-21T23:08:32.856Z,6.63
2023-05-21T23:11:02.027Z,7.30
2023-05-21T23:13:33.290Z,7.13
2023-05-21T23:16:04.542Z,7.10
2023-05-21T23:18:34.492Z,7.03
2023-05-21T23:21:03.673Z,6.50
2023-05-21T23:23:32.829Z,7.13
2023-05-21T23:26:02.029Z,8.00
2023-05-21T23:28:31.029Z,9.38
2023-05-21T23:31:00.120Z,9.40
2023-05-21T23:33:30.517Z,9.05
2023-05-21T23:35:59.624Z,8.40
2023-05-21T23:38:28.676Z,8.95
2023-05-21T23:40:57.677Z,8.50
2023-05-21T23:43:26.683Z,9.55
2023-05-21T23:45:55.821Z,8.73
2023-05-21T23:48:25.031Z,9.52
2023-05-21T23:50:55.928Z,8.60
2023-05-21T23:53:25.129Z,8.27
2023-05-21T23:55:54.397Z,7.90
2023-05-21T23:58:23.605Z,9.15
